Lander, WY

2:20 AM MST on March 04, 2015 (GMT -0700)
APRSWXNET Sinks Canyon Center WY US | Change Station
CLOSE
Current Station
Personal Weather Station
Location: Lander, WY
Elevation: 5807 ft
Nearby Weather Stations

Elev 5807 ft 42.78 °N, 108.77 °W | Updated 39 minutes ago

Partly Cloudy
Partly Cloudy
4 °F
Feels Like -9 °F
N
8
Wind Variable Wind from South
Gusts 14.0 mph

Today
High -- | Low -- °F
--% Chance of Precip.
Yesterday
High -- | Low -- °F
Precip. -- in
6:45 AM 6:07 PM
Waxing Gibbous, 98% visible
Pressure 30.27 in
Visibility 10.0 miles
Clouds Clear
Windchill -9 °F
Dew Point -4 °F
Humidity 67%
Rainfall 0.05 in
Snow Depth Not available.
UV 0 out of 12
Pollen .50 out of 12
Air Quality Not available.
Flu Activity Not available.
METAR KLND 040853Z AUTO 23006KT 10SM CLR M17/M22 A3002 RMK AO2 SLP250 T11671217 52004

More Conditions Fewer Conditions

Pressure 30.27 in
Visibility 10.0 miles
Clouds Clear
Windchill -9 °F
Dew Point -4 °F
Humidity 67%
Rainfall 0.05 in
Snow Depth Not available.
UV 0 out of 12
Pollen .50 out of 12
Air Quality Not available.
Flu Activity Not available.
METAR KLND 040853Z AUTO 23006KT 10SM CLR M17/M22 A3002 RMK AO2 SLP250 T11671217 52004

More Conditions Fewer Conditions

10-Day Weather Forecast

Almanac

Astronomy

Mar. 04, 2015 Rise Set
Actual Time
Civil Twilight
Nautical Twilight
Astronomical Twilight
Moon
Length of Visible Light
Length of Day
Tomorrow will be .
, % of the Moon is Illuminated

Today's Extremes

State Highs State Lows

Community

WunderPhotos

Upload Photos

1,802,419 photos uploaded!

WunderBlogs® & News

Nearby

Air Quality

  Air Quality AQ Index Pollutant
Not available.

Snow Depth

Station Depth Elevation

Earthquake Activity

City Distance Mag. Time & Date
Minimum magnitude displayed is 2.5.

Coastal Water Temperatures

Place Temperature

Nearby Weather Stations